sensor_id;sensor_type;location;lat;lon;timestamp;pressure;altitude;pressure_sealevel;temperature;humidity
37170;BME280;23062;13.952;100.608;2022-12-18T00:01:26;1014.82;;;27.15;37.67
37170;BME280;23062;13.952;100.608;2022-12-18T00:05:57;1014.93;;;27.13;37.59
37170;BME280;23062;13.952;100.608;2022-12-18T00:10:23;1015.02;;;27.12;37.40
37170;BME280;23062;13.952;100.608;2022-12-18T00:14:49;1015.00;;;27.08;37.45
37170;BME280;23062;13.952;100.608;2022-12-18T00:19:17;1015.08;;;27.04;37.49
37170;BME280;23062;13.952;100.608;2022-12-18T00:23:44;1015.26;;;27.03;37.50
37170;BME280;23062;13.952;100.608;2022-12-18T00:28:11;1015.29;;;27.10;37.48
37170;BME280;23062;13.952;100.608;2022-12-18T00:32:38;1015.33;;;27.13;37.30
37170;BME280;23062;13.952;100.608;2022-12-18T00:37:04;1015.46;;;27.12;37.11
37170;BME280;23062;13.952;100.608;2022-12-18T00:41:32;1015.47;;;27.12;37.29
37170;BME280;23062;13.952;100.608;2022-12-18T00:46:23;1015.51;;;27.18;36.93
37170;BME280;23062;13.952;100.608;2022-12-18T00:50:50;1015.63;;;27.21;37.25
37170;BME280;23062;13.952;100.608;2022-12-18T00:55:17;1015.69;;;27.19;36.95
37170;BME280;23062;13.952;100.608;2022-12-18T00:59:45;1015.71;;;27.22;36.95
37170;BME280;23062;13.952;100.608;2022-12-18T01:04:10;1015.70;;;27.22;37.16
37170;BME280;23062;13.952;100.608;2022-12-18T01:08:37;1015.72;;;27.25;36.93
37170;BME280;23062;13.952;100.608;2022-12-18T01:13:03;1015.73;;;27.25;36.75
37170;BME280;23062;13.952;100.608;2022-12-18T01:17:29;1015.86;;;27.29;36.38
37170;BME280;23062;13.952;100.608;2022-12-18T01:21:57;1016.01;;;27.33;36.45
37170;BME280;23062;13.952;100.608;2022-12-18T01:26:29;1016.12;;;27.36;36.52
37170;BME280;23062;13.952;100.608;2022-12-18T01:30:55;1016.19;;;27.40;36.65
37170;BME280;23062;13.952;100.608;2022-12-18T01:35:27;1016.19;;;27.41;36.48
37170;BME280;23062;13.952;100.608;2022-12-18T01:39:53;1016.26;;;27.45;36.54
37170;BME280;23062;13.952;100.608;2022-12-18T01:49:30;1016.33;;;27.48;36.10
37170;BME280;23062;13.952;100.608;2022-12-18T01:53:57;1016.32;;;27.55;36.62
37170;BME280;23062;13.952;100.608;2022-12-18T01:58:43;1016.41;;;27.59;36.32
37170;BME280;23062;13.952;100.608;2022-12-18T02:03:08;1016.37;;;27.66;36.82
37170;BME280;23062;13.952;100.608;2022-12-18T02:08:10;1016.49;;;27.69;36.66
37170;BME280;23062;13.952;100.608;2022-12-18T02:12:45;1016.46;;;27.72;36.17
37170;BME280;23062;13.952;100.608;2022-12-18T02:30:53;1016.41;;;27.89;36.83
37170;BME280;23062;13.952;100.608;2022-12-18T02:35:27;1016.44;;;27.93;37.90
37170;BME280;23062;13.952;100.608;2022-12-18T02:39:50;1016.42;;;27.98;37.30
37170;BME280;23062;13.952;100.608;2022-12-18T02:44:17;1016.45;;;28.00;37.43
37170;BME280;23062;13.952;100.608;2022-12-18T02:48:44;1016.45;;;28.02;37.67
37170;BME280;23062;13.952;100.608;2022-12-18T02:53:33;1016.49;;;28.07;37.37
37170;BME280;23062;13.952;100.608;2022-12-18T02:57:56;1016.34;;;28.08;36.63
37170;BME280;23062;13.952;100.608;2022-12-18T03:07:18;1016.31;;;28.13;36.93
37170;BME280;23062;13.952;100.608;2022-12-18T03:11:46;1016.19;;;28.16;37.28
37170;BME280;23062;13.952;100.608;2022-12-18T03:16:31;1016.08;;;28.17;37.20
37170;BME280;23062;13.952;100.608;2022-12-18T03:21:02;1016.00;;;28.20;35.97
37170;BME280;23062;13.952;100.608;2022-12-18T03:25:29;1015.92;;;28.21;36.29
37170;BME280;23062;13.952;100.608;2022-12-18T03:30:05;1015.85;;;28.22;36.49
37170;BME280;23062;13.952;100.608;2022-12-18T03:34:33;1015.74;;;28.24;36.64
37170;BME280;23062;13.952;100.608;2022-12-18T03:38:59;1015.66;;;28.23;36.34
37170;BME280;23062;13.952;100.608;2022-12-18T03:43:48;1015.70;;;28.25;36.92
37170;BME280;23062;13.952;100.608;2022-12-18T03:52:51;1015.50;;;28.31;36.30
37170;BME280;23062;13.952;100.608;2022-12-18T03:57:25;1015.45;;;28.32;35.29
37170;BME280;23062;13.952;100.608;2022-12-18T04:01:52;1015.27;;;28.32;36.27
37170;BME280;23062;13.952;100.608;2022-12-18T04:06:18;1015.26;;;28.32;36.48
37170;BME280;23062;13.952;100.608;2022-12-18T04:10:44;1015.21;;;28.31;36.78
37170;BME280;23062;13.952;100.608;2022-12-18T04:15:10;1015.05;;;28.34;36.88
37170;BME280;23062;13.952;100.608;2022-12-18T04:19:38;1014.98;;;28.34;36.61
37170;BME280;23062;13.952;100.608;2022-12-18T04:24:10;1014.87;;;28.35;36.94
37170;BME280;23062;13.952;100.608;2022-12-18T04:28:35;1014.99;;;28.36;37.16
37170;BME280;23062;13.952;100.608;2022-12-18T04:33:01;1014.82;;;28.39;36.84
37170;BME280;23062;13.952;100.608;2022-12-18T04:37:27;1014.70;;;28.42;36.56
37170;BME280;23062;13.952;100.608;2022-12-18T04:41:52;1014.72;;;28.45;36.58
37170;BME280;23062;13.952;100.608;2022-12-18T04:46:17;1014.61;;;28.46;35.91
37170;BME280;23062;13.952;100.608;2022-12-18T04:50:42;1014.51;;;28.51;36.65
37170;BME280;23062;13.952;100.608;2022-12-18T04:55:09;1014.36;;;28.51;36.86
37170;BME280;23062;13.952;100.608;2022-12-18T04:59:34;1014.24;;;28.50;36.92
37170;BME280;23062;13.952;100.608;2022-12-18T05:04:00;1014.21;;;28.53;37.02
37170;BME280;23062;13.952;100.608;2022-12-18T05:08:25;1014.14;;;28.55;36.97
37170;BME280;23062;13.952;100.608;2022-12-18T05:12:53;1014.05;;;28.56;37.04
37170;BME280;23062;13.952;100.608;2022-12-18T05:17:25;1013.98;;;28.56;37.22
37170;BME280;23062;13.952;100.608;2022-12-18T05:21:54;1013.88;;;28.61;37.16
37170;BME280;23062;13.952;100.608;2022-12-18T05:26:19;1013.79;;;28.62;36.99
37170;BME280;23062;13.952;100.608;2022-12-18T05:30:49;1013.67;;;28.61;37.00
37170;BME280;23062;13.952;100.608;2022-12-18T05:35:14;1013.59;;;28.66;36.25
37170;BME280;23062;13.952;100.608;2022-12-18T05:39:40;1013.42;;;28.66;36.56
37170;BME280;23062;13.952;100.608;2022-12-18T05:44:06;1013.39;;;28.68;36.85
37170;BME280;23062;13.952;100.608;2022-12-18T05:48:32;1013.29;;;28.67;36.39
37170;BME280;23062;13.952;100.608;2022-12-18T05:53:06;1013.14;;;28.67;36.25
37170;BME280;23062;13.952;100.608;2022-12-18T05:57:31;1013.03;;;28.70;36.40
37170;BME280;23062;13.952;100.608;2022-12-18T06:01:58;1012.90;;;28.71;36.70
37170;BME280;23062;13.952;100.608;2022-12-18T06:06:30;1012.82;;;28.70;36.33
37170;BME280;23062;13.952;100.608;2022-12-18T06:10:55;1012.67;;;28.72;36.30
37170;BME280;23062;13.952;100.608;2022-12-18T06:15:23;1012.58;;;28.73;36.32
37170;BME280;23062;13.952;100.608;2022-12-18T06:19:48;1012.39;;;28.74;36.02
37170;BME280;23062;13.952;100.608;2022-12-18T06:24:15;1012.25;;;28.76;35.73
37170;BME280;23062;13.952;100.608;2022-12-18T06:28:41;1012.13;;;28.76;36.24
37170;BME280;23062;13.952;100.608;2022-12-18T06:33:10;1012.00;;;28.76;36.25
37170;BME280;23062;13.952;100.608;2022-12-18T06:37:35;1011.87;;;28.78;36.24
37170;BME280;23062;13.952;100.608;2022-12-18T06:42:01;1011.76;;;28.77;36.13
37170;BME280;23062;13.952;100.608;2022-12-18T06:46:29;1011.69;;;28.79;36.28
37170;BME280;23062;13.952;100.608;2022-12-18T06:50:57;1011.57;;;28.79;36.34
37170;BME280;23062;13.952;100.608;2022-12-18T06:55:25;1011.48;;;28.82;36.19
37170;BME280;23062;13.952;100.608;2022-12-18T06:59:50;1011.47;;;28.82;36.17
37170;BME280;23062;13.952;100.608;2022-12-18T07:04:16;1011.41;;;28.82;36.35
37170;BME280;23062;13.952;100.608;2022-12-18T07:08:41;1011.47;;;28.82;36.14
37170;BME280;23062;13.952;100.608;2022-12-18T07:13:10;1011.34;;;28.84;36.06
37170;BME280;23062;13.952;100.608;2022-12-18T07:17:35;1011.37;;;28.86;36.31
37170;BME280;23062;13.952;100.608;2022-12-18T07:22:04;1011.28;;;28.85;36.09
37170;BME280;23062;13.952;100.608;2022-12-18T07:26:29;1011.29;;;28.82;36.34
37170;BME280;23062;13.952;100.608;2022-12-18T07:35:26;1011.19;;;28.83;34.78
37170;BME280;23062;13.952;100.608;2022-12-18T07:39:58;1011.24;;;28.83;34.93
37170;BME280;23062;13.952;100.608;2022-12-18T07:44:23;1011.20;;;28.87;35.08
37170;BME280;23062;13.952;100.608;2022-12-18T07:48:49;1011.13;;;28.88;35.20
37170;BME280;23062;13.952;100.608;2022-12-18T07:53:14;1011.16;;;28.89;35.10
37170;BME280;23062;13.952;100.608;2022-12-18T07:57:40;1011.09;;;28.92;35.72
37170;BME280;23062;13.952;100.608;2022-12-18T08:02:05;1011.06;;;28.83;34.99
37170;BME280;23062;13.952;100.608;2022-12-18T08:06:33;1011.03;;;28.78;35.54
37170;BME280;23062;13.952;100.608;2022-12-18T08:10:59;1011.04;;;28.72;35.60
37170;BME280;23062;13.952;100.608;2022-12-18T08:15:24;1010.95;;;28.72;35.77
37170;BME280;23062;13.952;100.608;2022-12-18T08:19:50;1010.93;;;28.74;35.80
37170;BME280;23062;13.952;100.608;2022-12-18T08:24:15;1011.05;;;28.74;35.60
37170;BME280;23062;13.952;100.608;2022-12-18T08:28:41;1010.96;;;28.75;36.09
37170;BME280;23062;13.952;100.608;2022-12-18T08:33:07;1010.91;;;28.74;37.02
37170;BME280;23062;13.952;100.608;2022-12-18T08:37:32;1010.89;;;28.65;37.75
37170;BME280;23062;13.952;100.608;2022-12-18T08:41:57;1010.92;;;28.66;37.96
37170;BME280;23062;13.952;100.608;2022-12-18T08:46:41;1010.89;;;28.68;38.48
37170;BME280;23062;13.952;100.608;2022-12-18T08:51:07;1010.57;;;28.60;38.70
37170;BME280;23062;13.952;100.608;2022-12-18T08:55:33;1010.90;;;28.68;38.95
37170;BME280;23062;13.952;100.608;2022-12-18T08:59:59;1010.90;;;28.68;38.73
37170;BME280;23062;13.952;100.608;2022-12-18T09:04:25;1010.97;;;28.73;38.54
37170;BME280;23062;13.952;100.608;2022-12-18T09:08:50;1010.99;;;28.75;38.22
37170;BME280;23062;13.952;100.608;2022-12-18T09:13:16;1011.05;;;28.62;38.55
37170;BME280;23062;13.952;100.608;2022-12-18T09:17:42;1011.14;;;28.71;38.81
37170;BME280;23062;13.952;100.608;2022-12-18T09:22:07;1011.17;;;28.74;38.93
37170;BME280;23062;13.952;100.608;2022-12-18T09:26:33;1011.20;;;28.69;38.95
37170;BME280;23062;13.952;100.608;2022-12-18T09:31:05;1011.28;;;28.71;38.50
37170;BME280;23062;13.952;100.608;2022-12-18T09:35:31;1011.31;;;28.69;37.91
37170;BME280;23062;13.952;100.608;2022-12-18T09:39:57;1011.29;;;28.66;37.55
37170;BME280;23062;13.952;100.608;2022-12-18T09:44:41;1011.35;;;28.70;37.92
37170;BME280;23062;13.952;100.608;2022-12-18T09:49:11;1011.45;;;28.63;38.45
37170;BME280;23062;13.952;100.608;2022-12-18T09:53:36;1011.51;;;28.72;38.27
37170;BME280;23062;13.952;100.608;2022-12-18T09:58:11;1011.58;;;28.85;38.52
37170;BME280;23062;13.952;100.608;2022-12-18T10:02:31;1011.61;;;28.84;38.26
37170;BME280;23062;13.952;100.608;2022-12-18T10:07:08;1011.69;;;28.84;38.67
37170;BME280;23062;13.952;100.608;2022-12-18T10:20:55;1011.83;;;28.59;39.11
37170;BME280;23062;13.952;100.608;2022-12-18T10:25:31;1011.93;;;28.62;39.84
37170;BME280;23062;13.952;100.608;2022-12-18T10:29:55;1011.89;;;28.58;40.73
37170;BME280;23062;13.952;100.608;2022-12-18T10:34:23;1011.96;;;28.48;41.16
37170;BME280;23062;13.952;100.608;2022-12-18T10:38:49;1012.04;;;28.58;41.64
37170;BME280;23062;13.952;100.608;2022-12-18T10:43:21;1012.06;;;28.50;41.59
37170;BME280;23062;13.952;100.608;2022-12-18T10:47:48;1012.03;;;28.53;42.26
37170;BME280;23062;13.952;100.608;2022-12-18T10:52:18;1012.07;;;28.57;42.00
37170;BME280;23062;13.952;100.608;2022-12-18T10:56:47;1012.07;;;28.60;42.46
37170;BME280;23062;13.952;100.608;2022-12-18T11:01:17;1012.22;;;28.66;42.52
37170;BME280;23062;13.952;100.608;2022-12-18T11:05:45;1012.24;;;28.65;41.45
37170;BME280;23062;13.952;100.608;2022-12-18T11:10:16;1012.39;;;28.66;41.55
37170;BME280;23062;13.952;100.608;2022-12-18T11:14:46;1012.42;;;28.63;41.84
37170;BME280;23062;13.952;100.608;2022-12-18T11:24:00;1012.61;;;28.57;39.30
37170;BME280;23062;13.952;100.608;2022-12-18T11:33:08;1012.74;;;28.41;38.35
37170;BME280;23062;13.952;100.608;2022-12-18T11:37:33;1012.85;;;28.38;37.35
37170;BME280;23062;13.952;100.608;2022-12-18T11:42:14;1012.86;;;28.38;37.94
37170;BME280;23062;13.952;100.608;2022-12-18T11:46:45;1012.98;;;28.38;36.88
37170;BME280;23062;13.952;100.608;2022-12-18T11:51:10;1013.07;;;28.30;36.19
37170;BME280;23062;13.952;100.608;2022-12-18T11:55:41;1013.15;;;28.33;36.83
37170;BME280;23062;13.952;100.608;2022-12-18T12:00:16;1013.33;;;28.41;37.22
37170;BME280;23062;13.952;100.608;2022-12-18T12:04:48;1013.41;;;28.41;37.14
37170;BME280;23062;13.952;100.608;2022-12-18T12:09:20;1013.54;;;28.33;36.34
37170;BME280;23062;13.952;100.608;2022-12-18T12:18:32;1013.68;;;28.34;37.79
37170;BME280;23062;13.952;100.608;2022-12-18T12:28:03;1013.80;;;28.55;39.25
37170;BME280;23062;13.952;100.608;2022-12-18T12:41:45;1014.06;;;28.67;40.07
37170;BME280;23062;13.952;100.608;2022-12-18T12:46:34;1014.15;;;28.67;39.85
37170;BME280;23062;13.952;100.608;2022-12-18T12:51:04;1014.22;;;28.67;40.02
37170;BME280;23062;13.952;100.608;2022-12-18T12:55:29;1014.29;;;28.68;40.26
37170;BME280;23062;13.952;100.608;2022-12-18T13:00:01;1014.33;;;28.67;40.29
37170;BME280;23062;13.952;100.608;2022-12-18T13:04:41;1014.47;;;28.69;40.40
37170;BME280;23062;13.952;100.608;2022-12-18T13:09:04;1014.55;;;28.70;40.46
37170;BME280;23062;13.952;100.608;2022-12-18T13:13:47;1014.57;;;28.69;40.54
37170;BME280;23062;13.952;100.608;2022-12-18T13:18:14;1014.57;;;28.71;40.36
37170;BME280;23062;13.952;100.608;2022-12-18T13:22:46;1014.62;;;28.72;40.44
37170;BME280;23062;13.952;100.608;2022-12-18T13:36:28;1014.89;;;28.72;40.53
37170;BME280;23062;13.952;100.608;2022-12-18T13:40:56;1014.92;;;28.71;40.38
37170;BME280;23062;13.952;100.608;2022-12-18T13:45:43;1014.93;;;28.72;40.03
37170;BME280;23062;13.952;100.608;2022-12-18T13:54:52;1015.02;;;28.73;40.04
37170;BME280;23062;13.952;100.608;2022-12-18T13:59:33;1015.12;;;28.73;40.04
37170;BME280;23062;13.952;100.608;2022-12-18T14:04:18;1015.14;;;28.73;39.77
37170;BME280;23062;13.952;100.608;2022-12-18T14:08:40;1015.14;;;28.73;39.80
37170;BME280;23062;13.952;100.608;2022-12-18T14:13:07;1015.15;;;28.72;39.64
37170;BME280;23062;13.952;100.608;2022-12-18T14:17:33;1015.15;;;28.71;39.77
37170;BME280;23062;13.952;100.608;2022-12-18T14:22:01;1015.09;;;28.71;39.90
37170;BME280;23062;13.952;100.608;2022-12-18T14:26:30;1015.10;;;28.71;39.90
37170;BME280;23062;13.952;100.608;2022-12-18T14:30:56;1015.04;;;28.69;39.92
37170;BME280;23062;13.952;100.608;2022-12-18T14:35:21;1015.04;;;28.69;39.76
37170;BME280;23062;13.952;100.608;2022-12-18T14:39:58;1015.10;;;28.68;39.71
37170;BME280;23062;13.952;100.608;2022-12-18T14:44:24;1015.14;;;28.69;39.69
37170;BME280;23062;13.952;100.608;2022-12-18T14:48:57;1015.15;;;28.67;39.77
37170;BME280;23062;13.952;100.608;2022-12-18T14:53:37;1015.10;;;28.68;39.88
37170;BME280;23062;13.952;100.608;2022-12-18T14:58:03;1014.99;;;28.67;39.70
37170;BME280;23062;13.952;100.608;2022-12-18T15:02:29;1015.02;;;28.66;39.58
37170;BME280;23062;13.952;100.608;2022-12-18T15:07:22;1014.97;;;28.66;39.38
37170;BME280;23062;13.952;100.608;2022-12-18T15:11:49;1014.93;;;28.66;39.44
37170;BME280;23062;13.952;100.608;2022-12-18T15:16:18;1014.95;;;28.64;39.32
37170;BME280;23062;13.952;100.608;2022-12-18T15:20:45;1014.90;;;28.62;39.34
37170;BME280;23062;13.952;100.608;2022-12-18T15:25:28;1014.86;;;28.62;39.09
37170;BME280;23062;13.952;100.608;2022-12-18T15:34:33;1014.82;;;28.61;38.70
37170;BME280;23062;13.952;100.608;2022-12-18T15:39:00;1014.77;;;28.61;38.90
37170;BME280;23062;13.952;100.608;2022-12-18T15:43:26;1014.79;;;28.60;38.70
37170;BME280;23062;13.952;100.608;2022-12-18T15:47:58;1014.74;;;28.58;38.54
37170;BME280;23062;13.952;100.608;2022-12-18T15:52:23;1014.74;;;28.58;38.44
37170;BME280;23062;13.952;100.608;2022-12-18T15:56:50;1014.63;;;28.57;38.50
37170;BME280;23062;13.952;100.608;2022-12-18T16:01:36;1014.60;;;28.58;38.29
37170;BME280;23062;13.952;100.608;2022-12-18T16:06:01;1014.58;;;28.57;38.23
37170;BME280;23062;13.952;100.608;2022-12-18T16:10:27;1014.56;;;28.56;38.10
37170;BME280;23062;13.952;100.608;2022-12-18T16:14:54;1014.50;;;28.54;38.51
37170;BME280;23062;13.952;100.608;2022-12-18T16:19:20;1014.40;;;28.54;38.41
37170;BME280;23062;13.952;100.608;2022-12-18T16:23:45;1014.43;;;28.53;38.29
37170;BME280;23062;13.952;100.608;2022-12-18T16:28:11;1014.39;;;28.52;38.23
37170;BME280;23062;13.952;100.608;2022-12-18T16:32:36;1014.34;;;28.50;38.17
37170;BME280;23062;13.952;100.608;2022-12-18T16:37:04;1014.30;;;28.50;38.35
37170;BME280;23062;13.952;100.608;2022-12-18T16:41:29;1014.23;;;28.49;38.17
37170;BME280;23062;13.952;100.608;2022-12-18T16:45:59;1014.25;;;28.48;38.09
37170;BME280;23062;13.952;100.608;2022-12-18T16:50:24;1014.24;;;28.48;38.29
37170;BME280;23062;13.952;100.608;2022-12-18T16:54:50;1014.27;;;28.46;38.03
37170;BME280;23062;13.952;100.608;2022-12-18T16:59:19;1014.13;;;28.44;38.06
37170;BME280;23062;13.952;100.608;2022-12-18T17:03:55;1014.19;;;28.43;37.97
37170;BME280;23062;13.952;100.608;2022-12-18T17:08:17;1014.12;;;28.43;37.90
37170;BME280;23062;13.952;100.608;2022-12-18T17:12:45;1014.11;;;28.42;37.77
37170;BME280;23062;13.952;100.608;2022-12-18T17:17:10;1014.11;;;28.40;37.97
37170;BME280;23062;13.952;100.608;2022-12-18T17:21:36;1014.14;;;28.40;38.05
37170;BME280;23062;13.952;100.608;2022-12-18T17:26:03;1014.07;;;28.39;37.90
37170;BME280;23062;13.952;100.608;2022-12-18T17:30:29;1014.06;;;28.37;37.99
37170;BME280;23062;13.952;100.608;2022-12-18T17:34:58;1014.00;;;28.37;37.81
37170;BME280;23062;13.952;100.608;2022-12-18T17:39:23;1013.98;;;28.36;37.84
37170;BME280;23062;13.952;100.608;2022-12-18T17:43:56;1014.01;;;28.34;37.89
37170;BME280;23062;13.952;100.608;2022-12-18T17:48:22;1014.00;;;28.34;37.82
37170;BME280;23062;13.952;100.608;2022-12-18T17:52:47;1013.99;;;28.33;37.78
37170;BME280;23062;13.952;100.608;2022-12-18T17:57:13;1013.97;;;28.31;37.92
37170;BME280;23062;13.952;100.608;2022-12-18T18:01:38;1013.96;;;28.31;37.91
37170;BME280;23062;13.952;100.608;2022-12-18T18:06:04;1013.92;;;28.30;37.75
37170;BME280;23062;13.952;100.608;2022-12-18T18:10:29;1013.87;;;28.29;37.64
37170;BME280;23062;13.952;100.608;2022-12-18T18:14:58;1013.85;;;28.28;37.57
37170;BME280;23062;13.952;100.608;2022-12-18T18:19:24;1013.83;;;28.27;37.83
37170;BME280;23062;13.952;100.608;2022-12-18T18:23:51;1013.86;;;28.26;37.61
37170;BME280;23062;13.952;100.608;2022-12-18T18:28:17;1013.80;;;28.25;37.78
37170;BME280;23062;13.952;100.608;2022-12-18T18:32:43;1013.75;;;28.24;37.64
37170;BME280;23062;13.952;100.608;2022-12-18T18:37:09;1013.73;;;28.23;37.57
37170;BME280;23062;13.952;100.608;2022-12-18T18:41:35;1013.69;;;28.22;37.57
37170;BME280;23062;13.952;100.608;2022-12-18T18:46:02;1013.63;;;28.21;37.49
37170;BME280;23062;13.952;100.608;2022-12-18T18:50:28;1013.57;;;28.20;37.62
37170;BME280;23062;13.952;100.608;2022-12-18T18:54:53;1013.56;;;28.20;37.57
37170;BME280;23062;13.952;100.608;2022-12-18T18:59:22;1013.49;;;28.18;37.35
37170;BME280;23062;13.952;100.608;2022-12-18T19:03:48;1013.49;;;28.17;37.39
37170;BME280;23062;13.952;100.608;2022-12-18T19:08:14;1013.54;;;28.19;37.33
37170;BME280;23062;13.952;100.608;2022-12-18T19:12:41;1013.37;;;28.14;37.42
37170;BME280;23062;13.952;100.608;2022-12-18T19:17:24;1013.40;;;28.15;37.09
37170;BME280;23062;13.952;100.608;2022-12-18T19:21:49;1013.38;;;28.14;37.24
37170;BME280;23062;13.952;100.608;2022-12-18T19:26:18;1013.33;;;28.12;37.08
37170;BME280;23062;13.952;100.608;2022-12-18T19:30:44;1013.31;;;28.10;36.74
37170;BME280;23062;13.952;100.608;2022-12-18T19:35:10;1013.21;;;28.09;36.89
37170;BME280;23062;13.952;100.608;2022-12-18T19:39:35;1013.19;;;28.07;36.74
37170;BME280;23062;13.952;100.608;2022-12-18T19:44:01;1013.17;;;28.06;36.73
37170;BME280;23062;13.952;100.608;2022-12-18T19:48:26;1013.18;;;28.05;36.93
37170;BME280;23062;13.952;100.608;2022-12-18T19:52:51;1013.20;;;28.04;36.93
37170;BME280;23062;13.952;100.608;2022-12-18T19:57:17;1013.17;;;28.03;36.82
37170;BME280;23062;13.952;100.608;2022-12-18T20:01:42;1013.21;;;28.03;36.85
37170;BME280;23062;13.952;100.608;2022-12-18T20:06:44;1013.16;;;28.02;36.83
37170;BME280;23062;13.952;100.608;2022-12-18T20:11:00;1013.13;;;28.02;36.59
37170;BME280;23062;13.952;100.608;2022-12-18T20:15:25;1013.13;;;28.00;36.71
37170;BME280;23062;13.952;100.608;2022-12-18T20:19:50;1013.21;;;27.99;36.55
37170;BME280;23062;13.952;100.608;2022-12-18T20:24:15;1013.23;;;27.97;36.53
37170;BME280;23062;13.952;100.608;2022-12-18T20:28:41;1013.27;;;27.96;36.34
37170;BME280;23062;13.952;100.608;2022-12-18T20:33:06;1013.26;;;27.95;36.49
37170;BME280;23062;13.952;100.608;2022-12-18T20:37:31;1013.23;;;27.95;36.68
37170;BME280;23062;13.952;100.608;2022-12-18T20:41:57;1013.20;;;27.93;36.47
37170;BME280;23062;13.952;100.608;2022-12-18T20:46:24;1013.18;;;27.91;36.54
37170;BME280;23062;13.952;100.608;2022-12-18T20:51:02;1013.17;;;27.90;36.30
37170;BME280;23062;13.952;100.608;2022-12-18T20:55:25;1013.18;;;27.90;36.41
37170;BME280;23062;13.952;100.608;2022-12-18T20:59:52;1013.12;;;27.89;36.03
37170;BME280;23062;13.952;100.608;2022-12-18T21:04:18;1013.18;;;27.88;36.14
37170;BME280;23062;13.952;100.608;2022-12-18T21:08:44;1013.20;;;27.87;36.12
37170;BME280;23062;13.952;100.608;2022-12-18T21:13:09;1013.23;;;27.86;36.13
37170;BME280;23062;13.952;100.608;2022-12-18T21:17:35;1013.29;;;27.85;35.75
37170;BME280;23062;13.952;100.608;2022-12-18T21:22:00;1013.31;;;27.84;36.12
37170;BME280;23062;13.952;100.608;2022-12-18T21:26:26;1013.31;;;27.84;36.39
37170;BME280;23062;13.952;100.608;2022-12-18T21:30:53;1013.30;;;27.85;35.75
37170;BME280;23062;13.952;100.608;2022-12-18T21:35:18;1013.29;;;27.84;35.77
37170;BME280;23062;13.952;100.608;2022-12-18T21:39:45;1013.31;;;27.82;35.69
37170;BME280;23062;13.952;100.608;2022-12-18T21:44:14;1013.25;;;27.82;35.78
37170;BME280;23062;13.952;100.608;2022-12-18T21:48:40;1013.28;;;27.83;35.81
37170;BME280;23062;13.952;100.608;2022-12-18T21:53:06;1013.32;;;27.81;35.82
37170;BME280;23062;13.952;100.608;2022-12-18T21:57:32;1013.33;;;27.79;36.02
37170;BME280;23062;13.952;100.608;2022-12-18T22:02:00;1013.40;;;27.79;35.67
37170;BME280;23062;13.952;100.608;2022-12-18T22:06:26;1013.48;;;27.55;33.21
37170;BME280;23062;13.952;100.608;2022-12-18T22:10:51;1013.55;;;27.11;33.35
37170;BME280;23062;13.952;100.608;2022-12-18T22:15:16;1013.65;;;26.90;37.14
37170;BME280;23062;13.952;100.608;2022-12-18T22:19:41;1013.74;;;26.66;36.38
37170;BME280;23062;13.952;100.608;2022-12-18T22:24:20;1013.74;;;26.58;36.90
37170;BME280;23062;13.952;100.608;2022-12-18T22:28:46;1013.77;;;26.44;38.46
37170;BME280;23062;13.952;100.608;2022-12-18T22:33:31;1013.81;;;26.37;39.00
37170;BME280;23062;13.952;100.608;2022-12-18T22:37:58;1013.84;;;26.37;38.77
37170;BME280;23062;13.952;100.608;2022-12-18T22:42:23;1013.85;;;26.21;38.37
37170;BME280;23062;13.952;100.608;2022-12-18T22:46:53;1013.92;;;26.05;38.78
37170;BME280;23062;13.952;100.608;2022-12-18T22:51:20;1013.98;;;26.00;38.79
37170;BME280;23062;13.952;100.608;2022-12-18T22:55:46;1013.97;;;25.71;38.51
37170;BME280;23062;13.952;100.608;2022-12-18T23:00:12;1013.95;;;25.64;41.45
37170;BME280;23062;13.952;100.608;2022-12-18T23:04:38;1013.99;;;24.62;41.07
37170;BME280;23062;13.952;100.608;2022-12-18T23:09:05;1014.04;;;24.70;40.87
37170;BME280;23062;13.952;100.608;2022-12-18T23:13:33;1014.04;;;25.56;40.13
37170;BME280;23062;13.952;100.608;2022-12-18T23:17:59;1014.15;;;26.07;39.81
37170;BME280;23062;13.952;100.608;2022-12-18T23:22:25;1014.18;;;26.31;39.79
37170;BME280;23062;13.952;100.608;2022-12-18T23:26:52;1014.17;;;26.47;39.60
37170;BME280;23062;13.952;100.608;2022-12-18T23:31:20;1014.34;;;26.46;39.13
37170;BME280;23062;13.952;100.608;2022-12-18T23:35:58;1014.38;;;25.63;39.11
37170;BME280;23062;13.952;100.608;2022-12-18T23:40:24;1014.45;;;25.26;39.13
37170;BME280;23062;13.952;100.608;2022-12-18T23:44:51;1014.49;;;25.29;38.94
37170;BME280;23062;13.952;100.608;2022-12-18T23:49:17;1014.57;;;24.97;38.73
37170;BME280;23062;13.952;100.608;2022-12-18T23:53:44;1014.63;;;25.00;39.55
37170;BME280;23062;13.952;100.608;2022-12-18T23:58:18;1014.78;;;24.75;39.47
